createdAt,value
2017-08-25T00:02:12.827Z,80.70
2017-08-25T00:04:38.898Z,80.80
2017-08-25T00:07:04.947Z,80.90
2017-08-25T00:09:31.042Z,80.90
2017-08-25T00:11:57.062Z,80.80
2017-08-25T00:14:23.462Z,80.80
2017-08-25T00:16:49.480Z,80.90
2017-08-25T00:19:15.502Z,80.90
2017-08-25T00:21:41.545Z,80.80
2017-08-25T00:24:07.555Z,80.50
2017-08-25T00:26:33.574Z,80.60
2017-08-25T00:28:59.906Z,80.90
2017-08-25T00:31:26.121Z,80.70
2017-08-25T00:33:52.154Z,80.80
2017-08-25T00:36:18.211Z,81.00
2017-08-25T00:38:44.258Z,81.10
2017-08-25T00:41:10.298Z,81.30
2017-08-25T00:43:36.355Z,81.50
2017-08-25T00:46:02.421Z,81.30
2017-08-25T00:48:28.470Z,81.30
2017-08-25T00:50:54.811Z,81.50
2017-08-25T00:53:20.845Z,81.40
2017-08-25T00:55:46.888Z,81.40
2017-08-25T00:58:13.202Z,81.30
2017-08-25T01:00:39.226Z,81.50
2017-08-25T01:03:05.259Z,81.30
2017-08-25T01:05:31.473Z,81.60
2017-08-25T01:07:57.526Z,81.50
2017-08-25T01:10:23.553Z,81.60
2017-08-25T01:12:49.818Z,81.20
2017-08-25T01:15:15.908Z,81.50
2017-08-25T01:17:41.957Z,81.60
2017-08-25T01:20:07.992Z,81.50
2017-08-25T01:22:34.018Z,81.70
2017-08-25T01:25:00.068Z,81.30
2017-08-25T01:27:26.590Z,81.40
2017-08-25T01:29:52.631Z,81.40
2017-08-25T01:32:18.700Z,81.30
2017-08-25T01:34:45.022Z,81.10
2017-08-25T01:37:11.042Z,81.60
2017-08-25T01:39:37.163Z,81.50
2017-08-25T01:42:03.397Z,81.50
2017-08-25T01:44:29.431Z,81.60
2017-08-25T01:46:55.557Z,81.80
2017-08-25T01:49:21.598Z,81.60
2017-08-25T01:51:47.659Z,81.50
2017-08-25T01:54:13.721Z,81.70
2017-08-25T01:56:40.358Z,81.80
2017-08-25T01:59:06.370Z,81.80
2017-08-25T02:01:32.431Z,81.90
2017-08-25T02:03:58.836Z,81.80
2017-08-25T02:06:24.850Z,81.80
2017-08-25T02:08:50.939Z,82.30
2017-08-25T02:11:17.309Z,81.90
2017-08-25T02:13:43.335Z,82.10
2017-08-25T02:16:09.391Z,82.10
2017-08-25T02:18:35.449Z,82.30
2017-08-25T02:21:01.497Z,82.40
2017-08-25T02:23:27.567Z,82.50
2017-08-25T02:25:53.622Z,82.40
2017-08-25T02:28:20.398Z,82.60
2017-08-25T02:30:46.459Z,82.60
2017-08-25T02:33:12.491Z,82.40
2017-08-25T02:35:38.553Z,82.00
2017-08-25T02:38:05.011Z,82.80
2017-08-25T02:40:31.029Z,82.10
2017-08-25T02:42:57.048Z,81.80
2017-08-25T02:45:23.438Z,81.80
2017-08-25T02:47:49.449Z,81.60
2017-08-25T02:50:15.470Z,81.70
2017-08-25T02:52:41.495Z,81.60
2017-08-25T02:55:07.510Z,81.20
2017-08-25T02:57:33.534Z,81.20
2017-08-25T02:59:59.611Z,80.70
2017-08-25T03:02:25.642Z,81.20
2017-08-25T03:04:51.699Z,80.30
2017-08-25T03:07:17.764Z,80.50
2017-08-25T03:09:43.985Z,80.40
2017-08-25T03:12:10.026Z,80.70
2017-08-25T03:14:36.225Z,81.00
2017-08-25T03:17:02.462Z,81.00
2017-08-25T03:19:28.490Z,81.10
2017-08-25T03:21:54.568Z,80.70
2017-08-25T03:24:20.599Z,81.10
2017-08-25T03:26:46.616Z,80.80
2017-08-25T03:29:12.683Z,81.00
2017-08-25T03:31:38.723Z,80.90
2017-08-25T03:34:04.758Z,80.80
2017-08-25T03:36:30.945Z,80.70
2017-08-25T03:38:57.082Z,80.60
2017-08-25T03:41:23.161Z,80.60
2017-08-25T03:43:49.434Z,80.70
2017-08-25T03:46:15.447Z,80.70
2017-08-25T03:48:41.461Z,80.20
2017-08-25T03:51:07.507Z,80.20
2017-08-25T03:53:33.609Z,80.30
2017-08-25T03:55:59.668Z,80.50
2017-08-25T03:58:25.730Z,80.40
2017-08-25T04:00:51.769Z,80.30
2017-08-25T04:03:17.799Z,80.20
2017-08-25T04:05:43.838Z,80.20
2017-08-25T04:08:09.862Z,80.20
2017-08-25T04:10:36.241Z,80.10
2017-08-25T04:13:02.284Z,79.80
2017-08-25T04:15:28.319Z,79.40
2017-08-25T04:17:54.378Z,79.30
2017-08-25T04:20:20.457Z,79.60
2017-08-25T04:22:46.486Z,79.50
2017-08-25T04:25:12.530Z,79.60
2017-08-25T04:27:38.593Z,79.20
2017-08-25T04:30:04.643Z,79.30
2017-08-25T04:32:30.736Z,79.00
2017-08-25T04:34:56.890Z,79.00
2017-08-25T04:37:23.075Z,78.70
2017-08-25T04:39:49.179Z,79.30
2017-08-25T04:42:15.227Z,79.40
2017-08-25T04:44:41.269Z,79.20
2017-08-25T04:47:07.313Z,80.00
2017-08-25T04:49:33.379Z,79.80
2017-08-25T04:51:59.402Z,79.70
2017-08-25T04:54:25.466Z,79.70
2017-08-25T04:56:51.534Z,80.10
2017-08-25T04:59:17.655Z,79.60
2017-08-25T05:01:43.767Z,80.00
2017-08-25T05:04:09.805Z,80.40
2017-08-25T05:06:35.842Z,80.40
2017-08-25T05:09:01.923Z,80.40
2017-08-25T05:11:27.955Z,80.50
2017-08-25T05:13:54.072Z,80.90
2017-08-25T05:18:52.970Z,81.20
2017-08-25T05:21:19.001Z,80.80
2017-08-25T05:23:45.102Z,80.70
2017-08-25T05:26:11.142Z,80.80
2017-08-25T05:28:37.194Z,80.70
2017-08-25T05:31:03.638Z,80.80
2017-08-25T05:33:29.682Z,81.10
2017-08-25T05:35:55.741Z,80.90
2017-08-25T05:38:21.800Z,80.80
2017-08-25T05:40:47.946Z,80.80
2017-08-25T05:43:13.977Z,81.10
2017-08-25T05:45:40.062Z,81.00
2017-08-25T05:48:06.094Z,80.90
2017-08-25T05:50:32.362Z,81.00
2017-08-25T05:52:58.510Z,81.00
2017-08-25T05:55:24.542Z,81.10
2017-08-25T05:57:50.582Z,81.00
2017-08-25T06:00:16.642Z,81.00
2017-08-25T06:02:42.672Z,81.30
2017-08-25T06:05:08.725Z,81.20
2017-08-25T06:07:34.979Z,81.20
2017-08-25T06:10:01.003Z,81.30
2017-08-25T06:12:27.054Z,81.60
2017-08-25T06:14:53.101Z,81.40
2017-08-25T06:17:19.125Z,81.50
2017-08-25T06:19:45.499Z,81.50
2017-08-25T06:22:11.556Z,81.30
2017-08-25T06:24:37.594Z,81.80
2017-08-25T06:27:03.738Z,82.10
2017-08-25T06:29:29.771Z,81.90
2017-08-25T06:31:55.827Z,82.00
2017-08-25T06:34:21.855Z,82.30
2017-08-25T06:36:47.965Z,82.10
2017-08-25T06:39:14.008Z,82.00
2017-08-25T06:41:40.086Z,81.40
2017-08-25T06:44:06.181Z,81.60
2017-08-25T06:46:32.194Z,81.90
2017-08-25T06:48:58.444Z,82.10
2017-08-25T06:51:24.478Z,82.20
2017-08-25T06:53:50.513Z,82.00
2017-08-25T06:56:16.550Z,81.80
2017-08-25T06:58:42.616Z,82.50
2017-08-25T07:01:08.644Z,81.70
2017-08-25T07:03:34.655Z,81.60
2017-08-25T07:06:00.700Z,81.40
2017-08-25T07:08:26.938Z,81.30
2017-08-25T07:10:53.110Z,81.00
2017-08-25T07:13:19.722Z,80.90
2017-08-25T07:15:45.751Z,80.70
2017-08-25T07:18:11.771Z,80.30
2017-08-25T07:20:37.810Z,80.10
2017-08-25T07:23:03.828Z,80.50
2017-08-25T07:25:29.888Z,80.60
2017-08-25T07:27:55.930Z,80.30
2017-08-25T07:30:21.960Z,80.10
2017-08-25T07:32:47.973Z,79.90
2017-08-25T07:35:14.357Z,79.80
2017-08-25T07:37:40.406Z,79.60
2017-08-25T07:40:06.478Z,79.20
2017-08-25T07:42:32.526Z,79.10
2017-08-25T07:44:58.587Z,79.00
2017-08-25T07:47:24.622Z,78.60
2017-08-25T07:49:50.675Z,78.30
2017-08-25T07:52:16.715Z,78.20
2017-08-25T07:54:42.780Z,78.10
2017-08-25T07:57:09.149Z,79.00
2017-08-25T07:59:35.182Z,77.40
2017-08-25T08:02:01.219Z,77.20
2017-08-25T08:04:27.310Z,76.40
2017-08-25T08:06:53.345Z,76.10
2017-08-25T08:09:19.362Z,76.20
2017-08-25T08:11:45.523Z,76.10
2017-08-25T08:14:11.566Z,76.20
2017-08-25T08:16:37.593Z,76.00
2017-08-25T08:19:03.659Z,75.90
2017-08-25T08:21:29.674Z,75.70
2017-08-25T08:23:55.699Z,75.90
2017-08-25T08:26:21.731Z,75.50
2017-08-25T08:28:47.751Z,75.40
2017-08-25T08:31:13.802Z,75.40
2017-08-25T08:33:39.875Z,75.00
2017-08-25T08:36:05.922Z,74.10
2017-08-25T08:38:31.926Z,73.50
2017-08-25T08:40:57.970Z,74.50
2017-08-25T08:43:23.986Z,73.90
2017-08-25T08:45:50.050Z,73.50
2017-08-25T08:48:16.129Z,74.00
2017-08-25T08:50:42.220Z,74.30
2017-08-25T08:53:08.236Z,74.00
2017-08-25T08:55:34.480Z,72.80
2017-08-25T08:58:00.519Z,71.40
2017-08-25T09:00:26.563Z,71.70
2017-08-25T09:02:52.783Z,71.50
2017-08-25T09:05:24.958Z,71.30
2017-08-25T09:07:50.980Z,71.30
2017-08-25T09:10:17.376Z,71.20
2017-08-25T09:12:43.402Z,71.90
2017-08-25T09:15:09.430Z,72.20
2017-08-25T09:17:35.630Z,71.00
2017-08-25T09:20:01.654Z,70.60
2017-08-25T09:22:27.717Z,70.30
2017-08-25T09:24:53.765Z,70.30
2017-08-25T09:27:19.826Z,70.80
2017-08-25T09:29:45.863Z,69.80
2017-08-25T09:32:11.881Z,70.80
2017-08-25T09:34:37.994Z,71.10
2017-08-25T09:37:04.010Z,71.70
2017-08-25T09:39:30.062Z,71.90
2017-08-25T09:41:56.086Z,71.70
2017-08-25T09:44:22.107Z,71.60
2017-08-25T09:46:48.181Z,71.90
2017-08-25T09:49:14.223Z,72.20
2017-08-25T09:51:40.245Z,72.50
2017-08-25T09:54:06.442Z,72.20
2017-08-25T09:56:32.474Z,72.70
2017-08-25T09:58:58.515Z,72.70
2017-08-25T10:01:28.442Z,72.90
2017-08-25T10:03:54.464Z,72.50
2017-08-25T10:06:20.486Z,70.70
2017-08-25T10:08:46.522Z,67.50
2017-08-25T10:11:12.578Z,65.10
2017-08-25T10:13:38.602Z,64.80
2017-08-25T10:16:04.641Z,65.60
2017-08-25T10:18:30.680Z,66.10
2017-08-25T10:20:56.907Z,67.20
2017-08-25T10:23:22.934Z,67.90
2017-08-25T10:25:48.959Z,68.50
2017-08-25T10:28:14.989Z,69.00
2017-08-25T10:30:41.026Z,69.30
2017-08-25T10:33:19.549Z,68.60
2017-08-25T10:35:57.990Z,68.20
2017-08-25T10:38:37.707Z,68.20
2017-08-25T10:41:16.018Z,66.90
2017-08-25T10:43:54.605Z,65.00
2017-08-25T10:46:20.628Z,64.30
2017-08-25T10:48:46.659Z,64.00
2017-08-25T10:51:12.714Z,64.10
2017-08-25T10:53:39.042Z,64.00
2017-08-25T10:56:05.094Z,63.60
2017-08-25T10:58:31.320Z,61.90
2017-08-25T11:00:57.355Z,60.00
2017-08-25T11:03:23.378Z,59.60
2017-08-25T11:05:49.698Z,59.40
2017-08-25T11:08:15.736Z,59.10
2017-08-25T11:10:41.774Z,59.40
2017-08-25T11:13:07.822Z,58.30
2017-08-25T11:15:33.870Z,58.30
2017-08-25T11:17:59.946Z,58.30
2017-08-25T11:20:26.162Z,57.90
2017-08-25T11:22:52.183Z,58.10
2017-08-25T11:25:18.206Z,58.50
2017-08-25T11:27:45.388Z,58.40
2017-08-25T11:30:11.433Z,58.30
2017-08-25T11:32:37.481Z,60.20
2017-08-25T11:35:03.520Z,59.50
2017-08-25T11:37:29.579Z,60.30
2017-08-25T11:39:55.638Z,60.80
2017-08-25T11:42:21.743Z,59.70
2017-08-25T11:44:47.779Z,60.30
2017-08-25T11:47:13.932Z,60.00
2017-08-25T11:49:40.014Z,60.60
2017-08-25T11:52:06.046Z,61.60
2017-08-25T11:54:32.074Z,61.70
2017-08-25T11:56:58.993Z,60.90
2017-08-25T11:59:25.038Z,61.30
2017-08-25T12:01:51.094Z,60.90
2017-08-25T12:04:17.159Z,61.70
2017-08-25T12:06:43.213Z,61.10
2017-08-25T12:09:09.225Z,60.30
2017-08-25T12:11:35.551Z,61.00
2017-08-25T12:14:01.587Z,60.90
2017-08-25T12:16:27.631Z,61.40
2017-08-25T12:18:53.760Z,61.90
2017-08-25T12:21:19.782Z,60.80
2017-08-25T12:23:45.804Z,61.00
2017-08-25T12:26:18.870Z,61.30
2017-08-25T12:28:44.904Z,60.50
2017-08-25T12:31:10.945Z,60.20
2017-08-25T12:33:37.214Z,59.40
2017-08-25T12:36:03.279Z,59.30
2017-08-25T12:38:29.305Z,59.50
2017-08-25T12:40:55.598Z,58.20
2017-08-25T12:43:21.623Z,58.00
2017-08-25T12:45:47.665Z,57.80
2017-08-25T12:48:14.786Z,57.40
2017-08-25T12:50:40.885Z,57.20
2017-08-25T12:53:06.906Z,56.10
2017-08-25T12:55:33.023Z,56.40
2017-08-25T12:57:59.046Z,54.60
2017-08-25T13:00:25.072Z,54.10
2017-08-25T13:02:51.309Z,54.90
2017-08-25T13:05:17.359Z,54.20
2017-08-25T13:07:43.406Z,54.70
2017-08-25T13:10:09.798Z,54.80
2017-08-25T13:12:35.814Z,55.80
2017-08-25T13:15:01.841Z,56.50
2017-08-25T13:17:28.063Z,56.20
2017-08-25T13:19:54.118Z,55.50
2017-08-25T13:22:20.135Z,54.50
2017-08-25T13:24:46.195Z,53.30
2017-08-25T13:27:12.247Z,53.80
2017-08-25T13:29:38.266Z,53.80
2017-08-25T13:32:04.599Z,52.90
2017-08-25T13:34:30.711Z,53.70
2017-08-25T13:36:56.740Z,53.40
2017-08-25T13:39:22.814Z,53.70
2017-08-25T13:41:48.853Z,53.90
2017-08-25T13:44:14.881Z,53.30
2017-08-25T13:46:40.934Z,53.70
2017-08-25T13:49:06.968Z,53.70
2017-08-25T13:51:32.979Z,53.70
2017-08-25T13:53:59.198Z,54.00
2017-08-25T13:56:25.234Z,54.60
2017-08-25T13:58:51.269Z,55.00
2017-08-25T14:01:17.322Z,54.00
2017-08-25T14:03:43.570Z,53.30
2017-08-25T14:06:09.654Z,53.80
2017-08-25T14:08:35.707Z,54.90
2017-08-25T14:11:01.775Z,53.30
2017-08-25T14:13:27.843Z,53.60
2017-08-25T14:15:53.869Z,53.50
2017-08-25T14:18:19.935Z,53.80
2017-08-25T14:20:45.962Z,54.60
2017-08-25T14:23:12.054Z,55.60
2017-08-25T14:25:38.398Z,55.60
2017-08-25T14:28:04.425Z,55.30
2017-08-25T14:30:30.447Z,55.20
2017-08-25T14:32:56.526Z,56.00
2017-08-25T14:35:22.570Z,56.80
2017-08-25T14:37:48.611Z,56.90
2017-08-25T14:40:14.839Z,56.40
2017-08-25T14:42:40.960Z,57.40
2017-08-25T14:45:06.994Z,58.00
2017-08-25T14:47:33.112Z,57.50
2017-08-25T14:49:59.195Z,58.00
2017-08-25T14:52:25.265Z,58.10
2017-08-25T14:54:51.674Z,58.60
2017-08-25T14:57:17.737Z,58.00
2017-08-25T14:59:43.765Z,58.60
2017-08-25T15:02:09.870Z,59.10
2017-08-25T15:04:35.903Z,59.10
2017-08-25T15:07:01.962Z,58.90
2017-08-25T15:09:28.027Z,58.00
2017-08-25T15:11:54.058Z,58.20
2017-08-25T15:14:20.088Z,58.10
2017-08-25T15:16:46.131Z,58.20
2017-08-25T15:19:12.195Z,58.90
2017-08-25T15:21:38.230Z,59.20
2017-08-25T15:24:04.339Z,59.30
2017-08-25T15:26:30.351Z,59.30
2017-08-25T15:28:56.398Z,59.40
2017-08-25T15:31:22.437Z,59.50
2017-08-25T15:33:48.473Z,59.40
2017-08-25T15:36:14.666Z,59.70
2017-08-25T15:38:40.738Z,59.00
2017-08-25T15:41:06.766Z,59.20
2017-08-25T15:43:32.818Z,59.30
2017-08-25T15:45:58.879Z,59.40
2017-08-25T15:48:24.937Z,59.30
2017-08-25T15:50:51.697Z,59.60
2017-08-25T15:53:25.213Z,59.60
2017-08-25T15:55:51.274Z,58.20
2017-08-25T15:58:17.310Z,58.50
2017-08-25T16:00:43.379Z,59.30
2017-08-25T16:03:09.454Z,59.90
2017-08-25T16:05:35.482Z,58.30
2017-08-25T16:08:01.562Z,59.10
2017-08-25T16:10:27.626Z,58.30
2017-08-25T16:12:53.670Z,58.80
2017-08-25T16:15:19.999Z,59.00
2017-08-25T16:17:46.034Z,59.40
2017-08-25T16:20:12.134Z,58.60
2017-08-25T16:22:38.182Z,58.90
2017-08-25T16:25:04.186Z,59.20
2017-08-25T16:27:36.822Z,58.90
2017-08-25T16:30:03.117Z,58.40
2017-08-25T16:32:29.139Z,59.00
2017-08-25T16:34:55.161Z,59.50
2017-08-25T16:37:21.565Z,59.20
2017-08-25T16:39:47.610Z,58.90
2017-08-25T16:42:13.671Z,59.00
2017-08-25T16:44:39.728Z,59.40
2017-08-25T16:47:05.759Z,58.50
2017-08-25T16:49:31.794Z,59.20
2017-08-25T16:51:57.860Z,59.00
2017-08-25T16:54:23.943Z,58.70
2017-08-25T16:56:50.002Z,59.00
2017-08-25T16:59:16.094Z,58.90
2017-08-25T17:01:42.188Z,59.20
2017-08-25T17:04:08.234Z,59.30
2017-08-25T17:06:34.557Z,58.90
2017-08-25T17:09:00.636Z,59.00
2017-08-25T17:11:26.678Z,58.70
2017-08-25T17:13:53.010Z,58.60
2017-08-25T17:16:19.078Z,59.00
2017-08-25T17:18:45.146Z,58.80
2017-08-25T17:21:11.263Z,59.70
2017-08-25T17:23:37.358Z,60.00
2017-08-25T17:26:03.390Z,59.90
2017-08-25T17:28:29.649Z,60.20
2017-08-25T17:30:55.716Z,60.50
2017-08-25T17:33:21.767Z,59.50
2017-08-25T17:35:48.237Z,60.10
2017-08-25T17:38:14.306Z,60.90
2017-08-25T17:40:40.330Z,60.40
2017-08-25T17:43:06.376Z,59.20
2017-08-25T17:45:32.421Z,59.90
2017-08-25T17:47:58.517Z,60.00
2017-08-25T17:50:24.690Z,60.70
2017-08-25T17:52:50.750Z,61.20
2017-08-25T17:55:16.802Z,61.10
2017-08-25T17:57:42.854Z,61.50
2017-08-25T18:00:08.944Z,61.60
2017-08-25T18:02:34.998Z,61.80
2017-08-25T18:05:01.053Z,62.30
2017-08-25T18:07:27.411Z,62.00
2017-08-25T18:09:53.479Z,62.30
2017-08-25T18:12:19.537Z,62.90
2017-08-25T18:14:45.606Z,62.60
2017-08-25T18:17:11.661Z,62.80
2017-08-25T18:19:37.714Z,63.20
2017-08-25T18:22:03.753Z,63.10
2017-08-25T18:24:29.814Z,63.60
2017-08-25T18:26:55.829Z,63.40
2017-08-25T18:29:21.886Z,63.70
2017-08-25T18:31:47.974Z,64.70
2017-08-25T18:34:14.029Z,64.60
2017-08-25T18:36:40.060Z,64.60
2017-08-25T18:39:06.122Z,65.00
2017-08-25T18:41:32.172Z,65.30
2017-08-25T18:43:58.206Z,65.30
2017-08-25T18:46:24.278Z,65.50
2017-08-25T18:48:50.350Z,65.70
2017-08-25T18:51:16.385Z,65.90
2017-08-25T18:53:42.475Z,66.30
2017-08-25T18:56:08.535Z,66.60
2017-08-25T18:58:34.598Z,67.60
2017-08-25T19:01:00.634Z,67.00
2017-08-25T19:03:26.654Z,67.20
2017-08-25T19:05:53.063Z,67.40
2017-08-25T19:08:19.098Z,67.80
2017-08-25T19:10:45.128Z,67.60
2017-08-25T19:13:11.207Z,68.00
2017-08-25T19:15:37.256Z,68.10
2017-08-25T19:18:03.318Z,68.80
2017-08-25T19:20:29.560Z,68.60
2017-08-25T19:22:55.870Z,68.70
2017-08-25T19:25:21.895Z,69.00
2017-08-25T19:27:48.078Z,69.20
2017-08-25T19:30:14.101Z,69.50
2017-08-25T19:32:40.136Z,69.60
2017-08-25T19:35:06.178Z,69.70
2017-08-25T19:37:32.226Z,70.20
2017-08-25T19:39:59.006Z,70.50
2017-08-25T19:42:25.030Z,70.50
2017-08-25T19:44:51.078Z,70.80
2017-08-25T19:47:17.164Z,71.10
2017-08-25T19:49:43.172Z,71.10
2017-08-25T19:52:09.197Z,71.20
2017-08-25T19:54:36.122Z,71.30
2017-08-25T19:57:02.149Z,71.50
2017-08-25T19:59:28.179Z,71.80
2017-08-25T20:01:54.498Z,71.90
2017-08-25T20:04:20.529Z,72.00
2017-08-25T20:06:46.561Z,72.30
2017-08-25T20:09:12.585Z,72.50
2017-08-25T20:11:38.606Z,72.70
2017-08-25T20:14:04.828Z,73.10
2017-08-25T20:16:30.867Z,73.10
2017-08-25T20:18:56.943Z,73.10
2017-08-25T20:21:22.997Z,73.20
2017-08-25T20:23:49.066Z,73.40
2017-08-25T20:26:15.451Z,73.50
2017-08-25T20:28:41.482Z,73.90
2017-08-25T20:32:23.186Z,74.00
2017-08-25T20:34:49.199Z,74.20
2017-08-25T20:37:15.213Z,74.30
2017-08-25T20:39:41.250Z,74.70
2017-08-25T20:42:07.274Z,74.70
2017-08-25T20:44:33.301Z,74.80
2017-08-25T20:46:59.712Z,75.10
2017-08-25T20:49:25.746Z,75.40
2017-08-25T20:51:51.770Z,75.30
2017-08-25T20:54:18.180Z,75.60
2017-08-25T20:56:44.210Z,75.80
2017-08-25T20:59:10.242Z,75.80
2017-08-25T21:01:36.302Z,75.80
2017-08-25T21:04:03.158Z,76.10
2017-08-25T21:06:29.182Z,76.00
2017-08-25T21:08:55.428Z,76.20
2017-08-25T21:11:21.455Z,76.20
2017-08-25T21:13:47.471Z,76.40
2017-08-25T21:16:13.529Z,76.50
2017-08-25T21:18:39.553Z,76.60
2017-08-25T21:21:05.586Z,76.90
2017-08-25T21:23:31.616Z,76.90
2017-08-25T21:25:57.635Z,77.20
2017-08-25T21:28:23.722Z,78.20
2017-08-25T21:30:49.786Z,77.60
2017-08-25T21:33:15.802Z,77.50
2017-08-25T21:35:41.904Z,77.80
2017-08-25T21:38:07.930Z,78.20
2017-08-25T21:40:33.981Z,78.00
2017-08-25T21:43:00.039Z,78.00
2017-08-25T21:45:26.063Z,78.00
2017-08-25T21:47:52.076Z,78.50
2017-08-25T21:50:18.154Z,78.60
2017-08-25T21:52:44.203Z,78.60
2017-08-25T21:55:10.251Z,78.90
2017-08-25T21:57:36.279Z,79.10
2017-08-25T22:00:02.330Z,78.60
2017-08-25T22:02:28.347Z,78.80
2017-08-25T22:04:54.390Z,78.90
2017-08-25T22:07:20.438Z,78.80
2017-08-25T22:09:46.459Z,79.60
2017-08-25T22:12:12.494Z,79.00
2017-08-25T22:14:38.778Z,79.10
2017-08-25T22:17:04.781Z,79.10
2017-08-25T22:19:30.804Z,79.60
2017-08-25T22:21:56.848Z,79.40
2017-08-25T22:24:22.862Z,79.20
2017-08-25T22:26:48.871Z,79.60
2017-08-25T22:29:14.914Z,79.70
2017-08-25T22:31:40.932Z,79.80
2017-08-25T22:34:06.950Z,80.00
2017-08-25T22:36:33.042Z,79.70
2017-08-25T22:38:59.064Z,79.70
2017-08-25T22:41:25.398Z,80.00
2017-08-25T22:43:51.691Z,80.00
2017-08-25T22:46:17.736Z,80.70
2017-08-25T22:48:43.765Z,80.00
2017-08-25T22:51:09.813Z,80.00
2017-08-25T22:53:35.836Z,80.30
2017-08-25T22:56:01.872Z,80.30
2017-08-25T22:58:27.886Z,80.50
2017-08-25T23:00:53.893Z,80.40
2017-08-25T23:03:19.940Z,80.70
2017-08-25T23:05:45.971Z,80.70
2017-08-25T23:08:11.990Z,80.60
2017-08-25T23:10:38.348Z,80.80
2017-08-25T23:13:04.414Z,80.80
2017-08-25T23:15:30.437Z,80.90
2017-08-25T23:17:56.509Z,80.60
2017-08-25T23:20:22.534Z,80.70
2017-08-25T23:22:48.570Z,80.70
2017-08-25T23:25:16.167Z,80.50
2017-08-25T23:27:42.209Z,80.80
2017-08-25T23:30:08.218Z,80.90
2017-08-25T23:32:34.282Z,80.90
2017-08-25T23:35:00.302Z,81.00
2017-08-25T23:37:26.326Z,81.20
2017-08-25T23:39:52.378Z,81.20
2017-08-25T23:42:18.396Z,81.10
2017-08-25T23:44:44.479Z,81.00
2017-08-25T23:47:10.525Z,81.10
2017-08-25T23:49:36.558Z,81.20
2017-08-25T23:52:02.575Z,81.20
2017-08-25T23:54:28.666Z,81.00
2017-08-25T23:56:54.694Z,81.30
2017-08-25T23:59:20.717Z,81.40
